FDX5986 WSSS-PANC
Flight info
| Callsign | FDX5986 |
|---|---|
| Flight time | N/A |
| Altitude | 29000 |
| Route | TOMAN3A TOMAN/N0488F270 L625 AKMON/K0898F270 L625 ANOKI/N0483F270 L625 MEVIN/N0501F310 B462 KAZIK Y59 AZAMA Y57 POROT Y809 OPELI/N0489F330 Y809 AVBET OTR9 EMRON DCT 42N160E 47N170E 52N180E 56N170W/N0470F350 59N160W DCT HAMND NEELL7 |
| Aircraft | B77L/H-SDE1E2E3FGHIJ2J3J4J5M1RWXY/LB1D1 |
Departure
| Time | N/A |
|---|---|
| Airport | Singapore Changi Airport (WSSS) |
Arrival
| Time | 2026-04-30 08:54 |
|---|---|
| Airport | Ted Stevens Anchorage International Airport (PANC) |
| Time | Latitude | Longitude | Altitude | Speed | Heading |
|---|---|---|---|---|---|
| 2026-04-30 07:52 | 58.81764 | -160.75013 | 34730 ft | 517 kts | 64° |
| 2026-04-30 07:53 | 58.83310 | -160.68752 | 34721 ft | 517 kts | 64° |
| 2026-04-30 07:53 | 58.86396 | -160.56204 | 34720 ft | 517 kts | 65° |
| 2026-04-30 07:54 | 58.89455 | -160.43690 | 34719 ft | 517 kts | 65° |
| 2026-04-30 07:54 | 58.92523 | -160.31072 | 34713 ft | 518 kts | 65° |
| 2026-04-30 07:55 | 58.95578 | -160.18427 | 34713 ft | 518 kts | 65° |
| 2026-04-30 07:55 | 58.98631 | -160.05735 | 34730 ft | 518 kts | 65° |
| 2026-04-30 07:56 | 59.01972 | -159.93344 | 34749 ft | 518 kts | 59° |
| 2026-04-30 07:56 | 59.05720 | -159.81480 | 34775 ft | 519 kts | 58° |
| 2026-04-30 07:57 | 59.09523 | -159.69537 | 34800 ft | 519 kts | 58° |
| 2026-04-30 07:57 | 59.13290 | -159.57509 | 34810 ft | 520 kts | 58° |
| 2026-04-30 07:58 | 59.17024 | -159.45426 | 34818 ft | 520 kts | 59° |
| 2026-04-30 07:58 | 59.20745 | -159.33303 | 34827 ft | 521 kts | 59° |
| 2026-04-30 07:59 | 59.24435 | -159.21227 | 34827 ft | 521 kts | 59° |
| 2026-04-30 07:59 | 59.28152 | -159.09004 | 34833 ft | 522 kts | 59° |
| 2026-04-30 08:00 | 59.33697 | -158.90656 | 34838 ft | 522 kts | 59° |
| 2026-04-30 08:00 | 59.36757 | -158.80468 | 34844 ft | 522 kts | 59° |
| 2026-04-30 08:01 | 59.40432 | -158.68171 | 34848 ft | 522 kts | 59° |
| 2026-04-30 08:01 | 59.44094 | -158.55850 | 34851 ft | 522 kts | 59° |
| 2026-04-30 08:02 | 59.49549 | -158.37380 | 34861 ft | 523 kts | 60° |
| 2026-04-30 08:03 | 59.56817 | -158.12532 | 34865 ft | 523 kts | 60° |
| 2026-04-30 08:04 | 59.60435 | -158.00066 | 34863 ft | 524 kts | 60° |
| 2026-04-30 08:04 | 59.64048 | -157.87545 | 34876 ft | 524 kts | 60° |
| 2026-04-30 08:05 | 59.67652 | -157.74989 | 34878 ft | 524 kts | 60° |
| 2026-04-30 08:05 | 59.71220 | -157.62491 | 34882 ft | 525 kts | 60° |
| 2026-04-30 08:06 | 59.74807 | -157.49855 | 34885 ft | 525 kts | 60° |
| 2026-04-30 08:06 | 59.78380 | -157.37199 | 34886 ft | 525 kts | 60° |
| 2026-04-30 08:07 | 59.81944 | -157.24507 | 34885 ft | 525 kts | 61° |
| 2026-04-30 08:07 | 59.85472 | -157.11871 | 34890 ft | 526 kts | 61° |
| 2026-04-30 08:08 | 59.89029 | -156.99057 | 34894 ft | 526 kts | 61° |
| 2026-04-30 08:08 | 59.92532 | -156.86370 | 34898 ft | 526 kts | 61° |
| 2026-04-30 08:09 | 59.96052 | -156.73550 | 34902 ft | 526 kts | 61° |
| 2026-04-30 08:09 | 59.99556 | -156.60716 | 34907 ft | 526 kts | 61° |
| 2026-04-30 08:10 | 60.03050 | -156.47844 | 34918 ft | 527 kts | 61° |
| 2026-04-30 08:10 | 60.06532 | -156.34941 | 34924 ft | 527 kts | 62° |
| 2026-04-30 08:11 | 60.10003 | -156.22006 | 34926 ft | 527 kts | 62° |
| 2026-04-30 08:11 | 60.13443 | -156.09113 | 34933 ft | 528 kts | 62° |
| 2026-04-30 08:12 | 60.16899 | -155.96089 | 34926 ft | 528 kts | 62° |
| 2026-04-30 08:12 | 60.20341 | -155.83039 | 34935 ft | 528 kts | 62° |
| 2026-04-30 08:13 | 60.23772 | -155.69953 | 34933 ft | 528 kts | 62° |
| 2026-04-30 08:13 | 60.27189 | -155.56844 | 34945 ft | 528 kts | 62° |
| 2026-04-30 08:14 | 60.30573 | -155.43788 | 34935 ft | 529 kts | 62° |
| 2026-04-30 08:14 | 60.33969 | -155.30606 | 34944 ft | 529 kts | 62° |
| 2026-04-30 08:15 | 60.37352 | -155.17399 | 34946 ft | 529 kts | 62° |
| 2026-04-30 08:15 | 60.40723 | -155.04155 | 34955 ft | 529 kts | 62° |
| 2026-04-30 08:16 | 60.44085 | -154.90870 | 34957 ft | 529 kts | 63° |
| 2026-04-30 08:16 | 60.47408 | -154.77668 | 34958 ft | 529 kts | 63° |
| 2026-04-30 08:17 | 60.50601 | -154.64199 | 34949 ft | 529 kts | 71° |
| 2026-04-30 08:17 | 60.52606 | -154.49855 | 34960 ft | 528 kts | 78° |
| 2026-04-30 08:18 | 60.54295 | -154.35389 | 34960 ft | 520 kts | 77° |
| 2026-04-30 08:18 | 60.55155 | -154.28285 | 34557 ft | 518 kts | 77° |
| 2026-04-30 08:18 | 60.56039 | -154.21243 | 33949 ft | 519 kts | 76° |
| 2026-04-30 08:18 | 60.56952 | -154.14158 | 33402 ft | 516 kts | 76° |
| 2026-04-30 08:19 | 60.57866 | -154.07145 | 32935 ft | 511 kts | 76° |
| 2026-04-30 08:19 | 60.58772 | -154.00185 | 32490 ft | 507 kts | 76° |
| 2026-04-30 08:19 | 60.59668 | -153.93272 | 32042 ft | 502 kts | 76° |
| 2026-04-30 08:19 | 60.60546 | -153.86437 | 31629 ft | 498 kts | 76° |
| 2026-04-30 08:20 | 60.61414 | -153.79639 | 31187 ft | 494 kts | 76° |
| 2026-04-30 08:20 | 60.62273 | -153.72864 | 30758 ft | 491 kts | 76° |
| 2026-04-30 08:20 | 60.63121 | -153.66146 | 30330 ft | 488 kts | 76° |
| 2026-04-30 08:20 | 60.63959 | -153.59476 | 29873 ft | 485 kts | 76° |
| 2026-04-30 08:21 | 60.64778 | -153.52922 | 29407 ft | 482 kts | 76° |
| 2026-04-30 08:21 | 60.65609 | -153.46242 | 28967 ft | 478 kts | 76° |
| 2026-04-30 08:21 | 60.66420 | -153.39686 | 28559 ft | 474 kts | 76° |
| 2026-04-30 08:21 | 60.67221 | -153.33193 | 28089 ft | 471 kts | 77° |
| 2026-04-30 08:22 | 60.68014 | -153.26739 | 27689 ft | 467 kts | 77° |
| 2026-04-30 08:22 | 60.68800 | -153.20314 | 27243 ft | 464 kts | 77° |
| 2026-04-30 08:22 | 60.69566 | -153.14021 | 26849 ft | 461 kts | 77° |
| 2026-04-30 08:22 | 60.70335 | -153.07675 | 26419 ft | 459 kts | 77° |
| 2026-04-30 08:23 | 60.71098 | -153.01355 | 25998 ft | 456 kts | 77° |
| 2026-04-30 08:23 | 60.71852 | -152.95079 | 25582 ft | 454 kts | 77° |
| 2026-04-30 08:23 | 60.72602 | -152.88826 | 25182 ft | 451 kts | 77° |
| 2026-04-30 08:23 | 60.73343 | -152.82612 | 24769 ft | 450 kts | 77° |
| 2026-04-30 08:24 | 60.74079 | -152.76406 | 24353 ft | 448 kts | 77° |
| 2026-04-30 08:24 | 60.74811 | -152.70214 | 23939 ft | 446 kts | 77° |
| 2026-04-30 08:24 | 60.75535 | -152.64067 | 23530 ft | 444 kts | 77° |
| 2026-04-30 08:24 | 60.76245 | -152.58000 | 23047 ft | 442 kts | 77° |
| 2026-04-30 08:25 | 60.76956 | -152.51922 | 22630 ft | 438 kts | 78° |
| 2026-04-30 08:25 | 60.77658 | -152.45891 | 22217 ft | 434 kts | 78° |
| 2026-04-30 08:25 | 60.78352 | -152.39898 | 21827 ft | 430 kts | 78° |
| 2026-04-30 08:25 | 60.79039 | -152.33948 | 21387 ft | 428 kts | 78° |
| 2026-04-30 08:26 | 60.79719 | -152.28026 | 20989 ft | 425 kts | 78° |
| 2026-04-30 08:26 | 60.80392 | -152.22151 | 20593 ft | 422 kts | 78° |
| 2026-04-30 08:26 | 60.81058 | -152.16307 | 20177 ft | 420 kts | 78° |
| 2026-04-30 08:26 | 60.81680 | -152.10484 | 19776 ft | 417 kts | 79° |
| 2026-04-30 08:27 | 60.82254 | -152.04685 | 19374 ft | 415 kts | 80° |
| 2026-04-30 08:27 | 60.82811 | -151.98894 | 18969 ft | 413 kts | 80° |
| 2026-04-30 08:27 | 60.83356 | -151.93214 | 18580 ft | 410 kts | 80° |
| 2026-04-30 08:27 | 60.83907 | -151.87487 | 18155 ft | 408 kts | 80° |
| 2026-04-30 08:28 | 60.84457 | -151.81789 | 17696 ft | 406 kts | 80° |
| 2026-04-30 08:28 | 60.85004 | -151.76134 | 17284 ft | 403 kts | 80° |
| 2026-04-30 08:28 | 60.85547 | -151.70495 | 16877 ft | 399 kts | 81° |
| 2026-04-30 08:28 | 60.86082 | -151.64923 | 16475 ft | 396 kts | 81° |
| 2026-04-30 08:29 | 60.86612 | -151.59395 | 16074 ft | 393 kts | 81° |
| 2026-04-30 08:29 | 60.87133 | -151.53916 | 15676 ft | 390 kts | 81° |
| 2026-04-30 08:29 | 60.87643 | -151.48531 | 15298 ft | 387 kts | 81° |
| 2026-04-30 08:29 | 60.88331 | -151.43227 | 14899 ft | 384 kts | 72° |
| 2026-04-30 08:30 | 60.89315 | -151.38132 | 14524 ft | 382 kts | 68° |
| 2026-04-30 08:30 | 60.90372 | -151.33152 | 14137 ft | 379 kts | 68° |
| 2026-04-30 08:30 | 60.91412 | -151.28197 | 13751 ft | 376 kts | 68° |
| 2026-04-30 08:30 | 60.92414 | -151.23252 | 13330 ft | 373 kts | 69° |
| 2026-04-30 08:31 | 60.93387 | -151.18307 | 12940 ft | 370 kts | 70° |
| 2026-04-30 08:31 | 60.94325 | -151.13460 | 12787 ft | 359 kts | 70° |
| 2026-04-30 08:31 | 60.95234 | -151.08740 | 12622 ft | 351 kts | 71° |
| 2026-04-30 08:31 | 60.96035 | -151.04054 | 12406 ft | 343 kts | 74° |
| 2026-04-30 08:32 | 60.96742 | -150.99418 | 12178 ft | 336 kts | 75° |
| 2026-04-30 08:32 | 60.97410 | -150.94958 | 12079 ft | 323 kts | 75° |
| 2026-04-30 08:32 | 60.98070 | -150.90619 | 11956 ft | 311 kts | 75° |
| 2026-04-30 08:32 | 60.98715 | -150.86430 | 11783 ft | 302 kts | 75° |
| 2026-04-30 08:33 | 60.99345 | -150.82344 | 11503 ft | 296 kts | 75° |
| 2026-04-30 08:33 | 60.99967 | -150.78301 | 11141 ft | 294 kts | 76° |
| 2026-04-30 08:33 | 61.00489 | -150.74264 | 10811 ft | 289 kts | 79° |
| 2026-04-30 08:33 | 61.00935 | -150.70332 | 10595 ft | 281 kts | 79° |
| 2026-04-30 08:34 | 61.01369 | -150.66441 | 10328 ft | 276 kts | 79° |
| 2026-04-30 08:34 | 61.01800 | -150.62597 | 9987 ft | 273 kts | 79° |
| 2026-04-30 08:34 | 61.02229 | -150.58797 | 9589 ft | 272 kts | 79° |
| 2026-04-30 08:34 | 61.02658 | -150.55009 | 9174 ft | 271 kts | 79° |
| 2026-04-30 08:35 | 61.03087 | -150.51232 | 8782 ft | 269 kts | 79° |
| 2026-04-30 08:35 | 61.03516 | -150.47479 | 8396 ft | 268 kts | 79° |
| 2026-04-30 08:35 | 61.03940 | -150.43746 | 7993 ft | 267 kts | 79° |
| 2026-04-30 08:35 | 61.04360 | -150.40042 | 7665 ft | 263 kts | 79° |
| 2026-04-30 08:36 | 61.04773 | -150.36400 | 7365 ft | 258 kts | 79° |
| 2026-04-30 08:36 | 61.05281 | -150.32918 | 7050 ft | 251 kts | 62° |
| 2026-04-30 08:36 | 61.06471 | -150.30319 | 6747 ft | 259 kts | 33° |
| 2026-04-30 08:36 | 61.08051 | -150.28441 | 6440 ft | 265 kts | 30° |
| 2026-04-30 08:37 | 61.09660 | -150.26558 | 6070 ft | 265 kts | 30° |
| 2026-04-30 08:37 | 61.11257 | -150.24674 | 5714 ft | 261 kts | 30° |
| 2026-04-30 08:37 | 61.12826 | -150.22815 | 5407 ft | 258 kts | 30° |
| 2026-04-30 08:37 | 61.14383 | -150.21025 | 5100 ft | 254 kts | 22° |
| 2026-04-30 08:38 | 61.16087 | -150.20482 | 5040 ft | 252 kts | 352° |
| 2026-04-30 08:38 | 61.17816 | -150.21179 | 5017 ft | 259 kts | 347° |
| 2026-04-30 08:38 | 61.19607 | -150.21960 | 5010 ft | 264 kts | 347° |
| 2026-04-30 08:38 | 61.21392 | -150.22723 | 4993 ft | 258 kts | 347° |
| 2026-04-30 08:39 | 61.23110 | -150.23455 | 4969 ft | 243 kts | 347° |
| 2026-04-30 08:39 | 61.24713 | -150.24178 | 4970 ft | 230 kts | 345° |
| 2026-04-30 08:39 | 61.26251 | -150.25039 | 4993 ft | 228 kts | 343° |
| 2026-04-30 08:39 | 61.27780 | -150.25921 | 4995 ft | 228 kts | 343° |
| 2026-04-30 08:40 | 61.29308 | -150.26796 | 5000 ft | 228 kts | 343° |
| 2026-04-30 08:40 | 61.30842 | -150.27669 | 4999 ft | 228 kts | 343° |
| 2026-04-30 08:40 | 61.32378 | -150.28541 | 4997 ft | 229 kts | 343° |
| 2026-04-30 08:40 | 61.33917 | -150.29412 | 4999 ft | 229 kts | 343° |
| 2026-04-30 08:41 | 61.35435 | -150.30272 | 4992 ft | 229 kts | 343° |
| 2026-04-30 08:41 | 61.36986 | -150.31209 | 4748 ft | 235 kts | 342° |
| 2026-04-30 08:41 | 61.38547 | -150.32205 | 4501 ft | 232 kts | 341° |
| 2026-04-30 08:41 | 61.40057 | -150.33185 | 4316 ft | 223 kts | 341° |
| 2026-04-30 08:42 | 61.41529 | -150.34149 | 4181 ft | 220 kts | 341° |
| 2026-04-30 08:42 | 61.42993 | -150.35117 | 4181 ft | 223 kts | 341° |
| 2026-04-30 08:42 | 61.44500 | -150.36100 | 4072 ft | 230 kts | 341° |
| 2026-04-30 08:42 | 61.46020 | -150.37087 | 4057 ft | 227 kts | 341° |
| 2026-04-30 08:43 | 61.47517 | -150.38067 | 4044 ft | 224 kts | 341° |
| 2026-04-30 08:43 | 61.48998 | -150.39038 | 4035 ft | 222 kts | 341° |
| 2026-04-30 08:43 | 61.50476 | -150.39993 | 4029 ft | 224 kts | 341° |
| 2026-04-30 08:43 | 61.51987 | -150.40957 | 3989 ft | 228 kts | 342° |
| 2026-04-30 08:44 | 61.53507 | -150.41926 | 3971 ft | 228 kts | 341° |
| 2026-04-30 08:44 | 61.54997 | -150.42897 | 3955 ft | 226 kts | 340° |
| 2026-04-30 08:44 | 61.56491 | -150.43901 | 3950 ft | 225 kts | 340° |
| 2026-04-30 08:44 | 61.57983 | -150.44908 | 3946 ft | 224 kts | 340° |
| 2026-04-30 08:45 | 61.59469 | -150.45894 | 3943 ft | 223 kts | 341° |
| 2026-04-30 08:45 | 61.60956 | -150.46863 | 3946 ft | 224 kts | 341° |
| 2026-04-30 08:45 | 61.62435 | -150.47805 | 3949 ft | 225 kts | 342° |
| 2026-04-30 08:45 | 61.63945 | -150.48747 | 3953 ft | 226 kts | 342° |
| 2026-04-30 08:46 | 61.65463 | -150.49690 | 3962 ft | 228 kts | 342° |
| 2026-04-30 08:46 | 61.66985 | -150.50647 | 3956 ft | 230 kts | 342° |
| 2026-04-30 08:46 | 61.68525 | -150.51601 | 3960 ft | 231 kts | 342° |
| 2026-04-30 08:46 | 61.70072 | -150.52557 | 3951 ft | 232 kts | 342° |
| 2026-04-30 08:47 | 61.71636 | -150.53210 | 3897 ft | 229 kts | 6° |
| 2026-04-30 08:47 | 61.73040 | -150.51911 | 3885 ft | 221 kts | 50° |
| 2026-04-30 08:47 | 61.73742 | -150.49109 | 3926 ft | 218 kts | 82° |
| 2026-04-30 08:47 | 61.73745 | -150.45959 | 3953 ft | 218 kts | 107° |
| 2026-04-30 08:48 | 61.73089 | -150.43138 | 3952 ft | 215 kts | 132° |
| 2026-04-30 08:48 | 61.71920 | -150.41280 | 3890 ft | 210 kts | 155° |
| 2026-04-30 08:48 | 61.70582 | -150.40028 | 3857 ft | 211 kts | 159° |
| 2026-04-30 08:48 | 61.69222 | -150.38855 | 3815 ft | 211 kts | 159° |
| 2026-04-30 08:49 | 61.67861 | -150.37690 | 3770 ft | 211 kts | 159° |
| 2026-04-30 08:49 | 61.66499 | -150.36522 | 3739 ft | 210 kts | 159° |
| 2026-04-30 08:49 | 61.65600 | -150.35747 | 3718 ft | 210 kts | 159° |
| 2026-04-30 08:49 | 61.64251 | -150.34579 | 3594 ft | 211 kts | 159° |
| 2026-04-30 08:50 | 61.60779 | -150.31554 | 3455 ft | 198 kts | 159° |
| 2026-04-30 08:50 | 61.55716 | -150.27124 | 3443 ft | 202 kts | 159° |
| 2026-04-30 08:50 | 61.50246 | -150.22338 | 3424 ft | 220 kts | 159° |
| 2026-04-30 08:50 | 61.44639 | -150.17440 | 3150 ft | 213 kts | 159° |
| 2026-04-30 08:51 | 61.39336 | -150.12828 | 2905 ft | 198 kts | 159° |
| 2026-04-30 08:51 | 61.35891 | -150.10333 | 2815 ft | 203 kts | 166° |
| 2026-04-30 08:51 | 61.30960 | -150.07603 | 2458 ft | 201 kts | 166° |
| 2026-04-30 08:51 | 61.29668 | -150.06900 | 2436 ft | 182 kts | 166° |
| 2026-04-30 08:52 | 61.28485 | -150.06240 | 2150 ft | 170 kts | 166° |
| 2026-04-30 08:52 | 61.27352 | -150.05602 | 1883 ft | 168 kts | 166° |
| 2026-04-30 08:52 | 61.26258 | -150.04982 | 1592 ft | 156 kts | 165° |
| 2026-04-30 08:52 | 61.25283 | -150.04396 | 1386 ft | 138 kts | 165° |
| 2026-04-30 08:53 | 61.24377 | -150.03887 | 1134 ft | 134 kts | 167° |
| 2026-04-30 08:53 | 61.23454 | -150.03401 | 986 ft | 138 kts | 165° |
| 2026-04-30 08:53 | 61.22540 | -150.02845 | 813 ft | 139 kts | 165° |
| 2026-04-30 08:53 | 61.21604 | -150.02361 | 579 ft | 140 kts | 166° |
| 2026-04-30 08:54 | 61.20680 | -150.01843 | 354 ft | 137 kts | 166° |
| 2026-04-30 08:54 | 61.19796 | -150.01353 | 179 ft | 125 kts | 165° |
| 2026-04-30 08:54 | 61.19047 | -150.00934 | 146 ft | 91 kts | 164° |
| 2026-04-30 08:54 | 61.18607 | -150.00688 | 137 ft | 49 kts | 165° |
| 2026-04-30 08:55 | 61.18280 | -150.00504 | 127 ft | 47 kts | 165° |
| 2026-04-30 08:55 | 61.17978 | -150.00308 | 123 ft | 44 kts | 155° |
| 2026-04-30 08:55 | 61.17798 | -149.99999 | 117 ft | 11 kts | 101° |
| 2026-04-30 08:55 | 61.17859 | -149.99920 | 119 ft | 17 kts | 350° |
| 2026-04-30 08:56 | 61.18045 | -150.00022 | 118 ft | 33 kts | 345° |
| 2026-04-30 08:56 | 61.18254 | -150.00138 | 122 ft | 30 kts | 345° |
| 2026-04-30 08:56 | 61.18458 | -150.00252 | 126 ft | 30 kts | 345° |
| 2026-04-30 08:56 | 61.18657 | -150.00364 | 125 ft | 30 kts | 345° |
| 2026-04-30 08:57 | 61.18869 | -150.00151 | 124 ft | 0 kts | 258° |
| 2026-04-30 08:57 | 61.18865 | -150.00172 | 123 ft | 8 kts | 252° |
| 2026-04-30 08:57 | 61.18863 | -150.00187 | 123 ft | 0 kts | 253° |